createdAt,value
2022-10-05T00:00:44.139Z,0
2022-10-05T00:05:44.138Z,0
2022-10-05T00:10:44.160Z,0
2022-10-05T00:15:44.122Z,0
2022-10-05T00:20:44.117Z,0
2022-10-05T00:25:44.090Z,0
2022-10-05T00:30:44.179Z,0
2022-10-05T00:35:44.105Z,0
2022-10-05T00:40:44.093Z,0
2022-10-05T00:45:44.115Z,0
2022-10-05T00:50:44.100Z,0
2022-10-05T00:55:44.102Z,0
2022-10-05T01:00:44.089Z,0
2022-10-05T01:05:44.079Z,0
2022-10-05T01:10:44.134Z,0
2022-10-05T01:15:44.100Z,0
2022-10-05T01:20:44.061Z,0
2022-10-05T01:25:44.097Z,0
2022-10-05T01:30:44.118Z,0
2022-10-05T01:35:44.060Z,0
2022-10-05T01:40:44.088Z,0
2022-10-05T01:45:44.114Z,0
2022-10-05T01:50:44.076Z,0
2022-10-05T01:55:44.039Z,0
2022-10-05T02:00:44.112Z,0
2022-10-05T02:05:44.033Z,0
2022-10-05T02:10:44.161Z,0
2022-10-05T02:15:44.098Z,0
2022-10-05T02:20:44.033Z,0
2022-10-05T02:25:44.050Z,0
2022-10-05T02:30:44.101Z,0
2022-10-05T02:35:44.017Z,0
2022-10-05T02:40:44.059Z,0
2022-10-05T02:45:44.060Z,0
2022-10-05T02:50:44.079Z,0
2022-10-05T02:55:44.021Z,0
2022-10-05T03:00:44.094Z,0
2022-10-05T03:05:44.012Z,0
2022-10-05T03:10:44.029Z,0
2022-10-05T03:15:44.084Z,0
2022-10-05T03:20:43.997Z,0
2022-10-05T03:25:44.003Z,0
2022-10-05T03:30:44.045Z,0
2022-10-05T03:35:44.014Z,0
2022-10-05T03:40:43.989Z,0
2022-10-05T03:45:44.009Z,0
2022-10-05T03:50:44.034Z,0
2022-10-05T03:55:43.978Z,0
2022-10-05T04:00:44.001Z,0
2022-10-05T04:05:44.006Z,0
2022-10-05T04:10:44.020Z,0
2022-10-05T04:15:44.065Z,0
2022-10-05T04:20:44.010Z,0
2022-10-05T04:25:44.009Z,0
2022-10-05T04:30:44.015Z,0
2022-10-05T04:35:43.984Z,0
2022-10-05T04:40:43.975Z,0
2022-10-05T04:45:43.991Z,0
2022-10-05T04:50:44.097Z,0
2022-10-05T04:55:43.953Z,0
2022-10-05T05:00:44.025Z,0
2022-10-05T05:05:58.896Z,0
2022-10-05T05:10:43.995Z,0
2022-10-05T05:15:44.001Z,0
2022-10-05T05:20:43.964Z,0
2022-10-05T05:25:44.300Z,0
2022-10-05T05:30:44.257Z,0
2022-10-05T05:35:44.216Z,0
2022-10-05T05:40:44.181Z,3
2022-10-05T05:45:44.200Z,5
2022-10-05T05:50:44.218Z,6
2022-10-05T05:55:44.170Z,5
2022-10-05T06:00:44.189Z,11
2022-10-05T06:05:44.179Z,14
2022-10-05T06:10:44.225Z,24
2022-10-05T06:15:44.174Z,37
2022-10-05T06:20:44.173Z,52
2022-10-05T06:25:44.177Z,57
2022-10-05T06:30:44.223Z,56
2022-10-05T06:35:44.190Z,45
2022-10-05T06:40:44.178Z,73
2022-10-05T06:45:44.180Z,97
2022-10-05T06:50:44.200Z,55
2022-10-05T06:55:44.183Z,39
2022-10-05T07:00:44.238Z,23
2022-10-05T07:05:44.166Z,44
2022-10-05T07:10:44.206Z,59
2022-10-05T07:15:44.162Z,60
2022-10-05T07:20:48.316Z,67
2022-10-05T07:25:44.161Z,124
2022-10-05T07:30:44.272Z,127
2022-10-05T07:35:44.165Z,168
2022-10-05T07:40:44.154Z,160
2022-10-05T07:45:44.171Z,151
2022-10-05T07:50:44.186Z,127
2022-10-05T07:55:44.157Z,119
2022-10-05T08:00:44.117Z,120
2022-10-05T08:05:44.158Z,121
2022-10-05T08:10:44.153Z,124
2022-10-05T08:15:44.187Z,113
2022-10-05T08:20:44.136Z,95
2022-10-05T08:25:44.151Z,93
2022-10-05T08:30:44.210Z,109
2022-10-05T08:35:44.128Z,110
2022-10-05T08:40:44.168Z,103
2022-10-05T08:45:44.163Z,88
2022-10-05T08:50:44.166Z,115
2022-10-05T08:55:44.130Z,115
2022-10-05T09:00:44.123Z,96
2022-10-05T09:05:44.132Z,69
2022-10-05T09:10:44.131Z,58
2022-10-05T09:15:44.203Z,45
2022-10-05T09:20:44.135Z,35
2022-10-05T09:25:44.128Z,26
2022-10-05T09:30:44.219Z,30
2022-10-05T09:35:44.104Z,46
2022-10-05T09:41:15.196Z,132
2022-10-05T09:45:44.099Z,141
2022-10-05T09:50:44.163Z,179
2022-10-05T09:55:44.117Z,210
2022-10-05T10:00:47.020Z,268
2022-10-05T10:05:44.104Z,359
2022-10-05T10:10:44.145Z,414
2022-10-05T10:15:44.215Z,416
2022-10-05T10:20:44.109Z,411
2022-10-05T10:25:44.085Z,509
2022-10-05T10:30:44.210Z,391
2022-10-05T10:35:44.085Z,786
2022-10-05T10:40:44.093Z,707
2022-10-05T10:45:44.099Z,796
2022-10-05T10:50:44.144Z,852
2022-10-05T10:55:44.081Z,852
2022-10-05T11:00:44.107Z,806
2022-10-05T11:05:46.374Z,819
2022-10-05T11:10:44.106Z,482
2022-10-05T11:15:44.187Z,585
2022-10-05T11:20:44.071Z,418
2022-10-05T11:25:44.066Z,239
2022-10-05T11:30:46.227Z,262
2022-10-05T11:35:44.089Z,238
2022-10-05T11:40:44.092Z,258
2022-10-05T11:45:44.077Z,253
2022-10-05T11:50:44.101Z,219
2022-10-05T11:55:44.100Z,202
2022-10-05T12:00:44.077Z,223
2022-10-05T12:05:44.077Z,265
2022-10-05T12:10:44.088Z,310
2022-10-05T12:15:44.130Z,285
2022-10-05T12:20:44.098Z,298
2022-10-05T12:25:44.074Z,337
2022-10-05T12:30:44.137Z,509
2022-10-05T12:35:48.134Z,606
2022-10-05T12:40:44.054Z,855
2022-10-05T12:45:44.074Z,156
2022-10-05T12:50:44.084Z,419
2022-10-05T12:55:44.069Z,339
2022-10-05T13:00:44.186Z,751
2022-10-05T13:05:44.045Z,373
2022-10-05T13:10:44.104Z,602
2022-10-05T13:15:44.045Z,556
2022-10-05T13:20:44.039Z,538
2022-10-05T13:25:44.043Z,518
2022-10-05T13:30:44.097Z,508
2022-10-05T13:35:44.071Z,492
2022-10-05T13:40:44.012Z,536
2022-10-05T13:45:44.098Z,519
2022-10-05T13:50:44.079Z,511
2022-10-05T13:55:44.047Z,497
2022-10-05T14:00:44.042Z,465
2022-10-05T14:05:44.031Z,448
2022-10-05T14:10:44.080Z,270
2022-10-05T14:15:44.071Z,98
2022-10-05T14:20:44.070Z,49
2022-10-05T14:25:44.076Z,39
2022-10-05T14:30:46.818Z,36
2022-10-05T14:35:44.020Z,33
2022-10-05T14:40:44.030Z,29
2022-10-05T14:45:44.082Z,29
2022-10-05T14:50:44.076Z,25
2022-10-05T14:55:44.047Z,24
2022-10-05T15:00:48.146Z,23
2022-10-05T15:05:44.054Z,21
2022-10-05T15:10:44.036Z,21
2022-10-05T15:15:44.034Z,20
2022-10-05T15:20:44.023Z,18
2022-10-05T15:25:44.024Z,18
2022-10-05T15:30:44.164Z,16
2022-10-05T15:35:44.027Z,16
2022-10-05T15:40:44.019Z,15
2022-10-05T15:45:44.115Z,14
2022-10-05T15:50:44.039Z,15
2022-10-05T15:55:43.999Z,16
2022-10-05T16:00:44.021Z,11
2022-10-05T16:05:44.022Z,14
2022-10-05T16:10:44.076Z,13
2022-10-05T16:15:43.996Z,12
2022-10-05T16:20:44.029Z,11
2022-10-05T16:25:43.997Z,11
2022-10-05T16:30:44.089Z,8
2022-10-05T16:35:44.019Z,9
2022-10-05T16:40:44.010Z,4
2022-10-05T16:45:45.573Z,3
2022-10-05T16:50:44.038Z,1
2022-10-05T16:55:43.987Z,0
2022-10-05T17:00:43.995Z,0
2022-10-05T17:05:44.035Z,0
2022-10-05T17:10:44.023Z,0
2022-10-05T17:15:44.095Z,0
2022-10-05T17:20:43.994Z,0
2022-10-05T17:25:44.006Z,0
2022-10-05T17:30:44.084Z,0
2022-10-05T17:35:43.985Z,0
2022-10-05T17:40:44.001Z,0
2022-10-05T17:45:43.988Z,0
2022-10-05T17:50:44.028Z,0
2022-10-05T17:55:43.981Z,0
2022-10-05T18:00:43.974Z,0
2022-10-05T18:05:44.002Z,0
2022-10-05T18:10:44.034Z,0
2022-10-05T18:15:44.133Z,0
2022-10-05T18:20:44.004Z,0
2022-10-05T18:25:43.971Z,0
2022-10-05T18:30:44.048Z,0
2022-10-05T18:35:43.980Z,0
2022-10-05T18:40:43.995Z,0
2022-10-05T18:45:43.980Z,0
2022-10-05T18:50:43.977Z,0
2022-10-05T18:55:43.933Z,0
2022-10-05T19:00:43.944Z,0
2022-10-05T19:05:47.790Z,0
2022-10-05T19:10:43.989Z,0
2022-10-05T19:15:43.999Z,0
2022-10-05T19:20:43.947Z,0
2022-10-05T19:25:43.967Z,0
2022-10-05T19:30:44.009Z,0
2022-10-05T19:35:43.968Z,0
2022-10-05T19:40:43.946Z,0
2022-10-05T19:45:43.952Z,0
2022-10-05T19:50:44.011Z,0
2022-10-05T19:55:43.964Z,0
2022-10-05T20:00:43.934Z,0
2022-10-05T20:05:43.963Z,0
2022-10-05T20:10:43.976Z,0
2022-10-05T20:15:44.007Z,0
2022-10-05T20:20:45.707Z,0
2022-10-05T20:25:43.928Z,0
2022-10-05T20:30:43.941Z,0
2022-10-05T20:35:43.930Z,0
2022-10-05T20:40:43.937Z,0
2022-10-05T20:45:43.931Z,0
2022-10-05T20:50:43.960Z,0
2022-10-05T20:55:43.935Z,0
2022-10-05T21:00:43.959Z,0
2022-10-05T21:05:43.922Z,0
2022-10-05T21:10:43.930Z,0
2022-10-05T21:15:43.905Z,0
2022-10-05T21:20:43.902Z,0
2022-10-05T21:25:43.901Z,0
2022-10-05T21:30:43.913Z,0
2022-10-05T21:35:43.908Z,0
2022-10-05T21:40:43.932Z,0
2022-10-05T21:45:43.951Z,0
2022-10-05T21:50:44.063Z,0
2022-10-05T21:55:43.911Z,0
2022-10-05T22:00:43.948Z,0
2022-10-05T22:05:44.057Z,0
2022-10-05T22:10:43.911Z,0
2022-10-05T22:15:43.888Z,0
2022-10-05T22:20:43.893Z,0
2022-10-05T22:25:43.893Z,0
2022-10-05T22:30:43.897Z,0
2022-10-05T22:35:43.867Z,0
2022-10-05T22:40:43.860Z,0
2022-10-05T22:45:43.963Z,0
2022-10-05T22:50:43.931Z,0
2022-10-05T22:55:43.888Z,0
2022-10-05T23:00:57.870Z,0
2022-10-05T23:05:43.895Z,0
2022-10-05T23:10:43.919Z,0
2022-10-05T23:15:43.873Z,0
2022-10-05T23:20:43.887Z,0
2022-10-05T23:25:43.885Z,0
2022-10-05T23:30:43.953Z,0
2022-10-05T23:35:43.856Z,0
2022-10-05T23:40:43.877Z,0
2022-10-05T23:45:43.870Z,0
2022-10-05T23:50:43.899Z,0
2022-10-05T23:55:43.884Z,0
